Time;durP1;ratioP1;P1;durP2;ratioP2;P2;SDS_P1;SDS_P2;PMS_P1;PMS_P2;Temp;Humidity;BMP_temperature;BMP_pressure;BME280_temperature;BME280_humidity;BME280_pressure;Samples;Min_cycle;Max_cycle;Signal;HPM_P1;HPM_P2
2024/03/31 00:00:15;;;;;;;28.43;10.30;;;9.70;99.90;;;;;;5021165;28;20452;-67
2024/03/31 00:02:42;;;;;;;26.73;8.07;;;9.70;99.90;;;;;;5022046;28;20478;-67
2024/03/31 00:05:08;;;;;;;26.57;7.67;;;9.60;99.90;;;;;;5022162;28;20469;-67
2024/03/31 00:07:36;;;;;;;21.70;6.97;;;9.70;99.90;;;;;;5012133;28;20453;-68
2024/03/31 00:10:04;;;;;;;20.87;8.00;;;9.80;99.90;;;;;;5022311;28;20461;-67
2024/03/31 00:12:31;;;;;;;25.13;8.30;;;9.90;99.90;;;;;;5018665;28;20438;-66
2024/03/31 00:14:57;;;;;;;23.63;8.00;;;10.00;99.90;;;;;;5020668;28;20469;-66
2024/03/31 00:17:25;;;;;;;25.20;7.67;;;10.10;99.90;;;;;;5018187;28;20488;-67
2024/03/31 00:19:52;;;;;;;23.77;7.87;;;10.10;99.90;;;;;;5024422;28;20489;-66
2024/03/31 00:22:19;;;;;;;20.60;7.60;;;10.10;99.90;;;;;;5017212;28;20444;-66
2024/03/31 00:24:45;;;;;;;23.00;6.63;;;9.90;99.90;;;;;;5022176;28;21293;-66
2024/03/31 00:27:13;;;;;;;23.10;7.83;;;10.00;99.90;;;;;;5016906;28;21224;-65
2024/03/31 00:29:39;;;;;;;23.90;7.00;;;10.00;99.90;;;;;;5015845;28;20509;-66
2024/03/31 00:32:07;;;;;;;18.27;6.10;;;10.00;99.90;;;;;;5020448;28;20455;-65
2024/03/31 00:34:33;;;;;;;22.43;7.70;;;10.00;99.90;;;;;;5019214;28;20531;-66
2024/03/31 00:37:00;;;;;;;23.80;7.13;;;10.00;99.90;;;;;;5018103;28;20507;-66
2024/03/31 00:39:26;;;;;;;29.47;7.50;;;9.90;99.90;;;;;;5015866;28;20451;-67
2024/03/31 00:41:55;;;;;;;21.57;6.73;;;9.90;99.90;;;;;;5014317;28;20480;-68
2024/03/31 00:44:22;;;;;;;23.50;8.30;;;9.90;99.90;;;;;;5012781;28;20555;-67
2024/03/31 00:46:49;;;;;;;21.80;6.57;;;9.90;99.90;;;;;;5026817;28;20503;-67
2024/03/31 00:49:15;;;;;;;26.50;7.00;;;9.90;99.90;;;;;;5018660;28;20451;-67
2024/03/31 00:51:42;;;;;;;19.60;7.30;;;10.10;99.90;;;;;;5019326;28;20450;-67
2024/03/31 00:54:08;;;;;;;19.10;6.87;;;10.10;99.90;;;;;;5022373;28;20473;-67
2024/03/31 00:56:35;;;;;;;19.83;6.20;;;10.00;99.90;;;;;;5015481;28;20483;-68
2024/03/31 00:59:02;;;;;;;19.07;6.20;;;10.10;99.90;;;;;;5021818;28;20453;-67
2024/03/31 01:01:30;;;;;;;16.90;5.43;;;10.00;99.90;;;;;;5022261;28;20462;-67
2024/03/31 01:03:56;;;;;;;28.17;6.53;;;10.00;99.90;;;;;;5020422;28;20467;-67
2024/03/31 01:06:25;;;;;;;20.70;5.90;;;9.90;99.90;;;;;;5020285;28;20460;-67
2024/03/31 01:08:53;;;;;;;23.13;6.07;;;9.90;99.90;;;;;;5022104;28;20841;-67
2024/03/31 01:11:21;;;;;;;17.40;6.80;;;9.90;99.90;;;;;;5024628;28;20471;-67
2024/03/31 01:13:48;;;;;;;20.53;5.93;;;9.80;99.90;;;;;;5026245;28;21112;-67
2024/03/31 01:16:16;;;;;;;19.37;6.23;;;9.80;99.90;;;;;;5025746;28;20454;-65
2024/03/31 01:18:43;;;;;;;20.87;5.97;;;10.00;99.90;;;;;;5028945;28;20460;-67
2024/03/31 01:21:12;;;;;;;18.93;5.17;;;9.80;99.90;;;;;;5024606;28;20450;-69
2024/03/31 01:23:50;;;;;;;22.37;7.90;;;9.60;99.90;;;;;;5018063;28;20472;-67
2024/03/31 01:26:17;;;;;;;23.00;6.80;;;9.50;99.90;;;;;;5022173;28;20444;-68
2024/03/31 01:28:43;;;;;;;17.23;6.60;;;9.50;99.90;;;;;;5030108;28;20449;-68
2024/03/31 01:31:10;;;;;;;17.00;5.83;;;9.40;99.90;;;;;;5027684;28;21235;-68
2024/03/31 01:33:36;;;;;;;15.20;6.70;;;9.40;99.90;;;;;;5043977;28;20473;-67
2024/03/31 01:36:04;;;;;;;18.53;5.77;;;9.30;99.90;;;;;;5024810;28;20450;-67
2024/03/31 01:38:30;;;;;;;21.60;6.60;;;9.30;99.90;;;;;;5032190;28;20446;-67
2024/03/31 01:40:59;;;;;;;24.67;6.97;;;9.30;99.90;;;;;;5020044;28;20446;-67
2024/03/31 01:43:25;;;;;;;16.47;5.60;;;9.30;99.90;;;;;;5037953;28;20475;-67
2024/03/31 01:45:52;;;;;;;18.43;5.80;;;9.60;99.90;;;;;;5028278;28;20833;-67
2024/03/31 01:48:18;;;;;;;21.27;8.10;;;9.70;99.90;;;;;;5028916;28;20433;-66
2024/03/31 01:50:45;;;;;;;16.93;6.80;;;9.80;99.90;;;;;;5026680;28;20563;-67
2024/03/31 01:53:11;;;;;;;16.63;5.77;;;9.60;99.90;;;;;;5028909;28;20473;-67
2024/03/31 01:55:39;;;;;;;16.10;5.53;;;9.50;99.90;;;;;;5028491;28;20456;-67
2024/03/31 01:58:06;;;;;;;18.40;6.27;;;9.50;99.90;;;;;;5038772;28;20497;-67
2024/03/31 02:00:33;;;;;;;19.20;4.63;;;9.60;99.90;;;;;;5021199;28;20449;-68
2024/03/31 02:02:59;;;;;;;16.43;4.87;;;9.70;99.90;;;;;;5028584;28;20826;-67
2024/03/31 02:05:26;;;;;;;17.90;4.37;;;9.80;99.90;;;;;;5028723;28;20444;-68
2024/03/31 02:07:52;;;;;;;19.60;5.13;;;9.80;99.90;;;;;;5025645;28;20445;-67
2024/03/31 02:10:19;;;;;;;20.07;5.00;;;9.80;99.90;;;;;;5036291;28;20919;-68
2024/03/31 02:12:48;;;;;;;24.33;6.10;;;9.90;99.90;;;;;;5027900;28;20448;-67
2024/03/31 02:15:17;;;;;;;15.93;5.20;;;9.90;99.90;;;;;;5024108;28;20903;-68
2024/03/31 02:17:43;;;;;;;22.43;5.70;;;9.70;99.90;;;;;;5024258;28;20511;-67
2024/03/31 02:20:10;;;;;;;21.83;5.77;;;9.70;99.90;;;;;;5019840;28;20448;-66
2024/03/31 02:22:36;;;;;;;17.23;4.67;;;9.60;99.90;;;;;;5027292;28;20452;-67
2024/03/31 02:25:04;;;;;;;21.70;5.40;;;9.50;99.90;;;;;;5024807;28;21003;-67
2024/03/31 02:27:30;;;;;;;19.40;7.17;;;9.40;99.90;;;;;;5036610;28;20449;-66
2024/03/31 02:29:58;;;;;;;25.17;6.30;;;9.40;99.90;;;;;;5011290;28;20910;-67
2024/03/31 02:32:26;;;;;;;21.53;6.17;;;9.30;99.90;;;;;;5035453;28;20480;-67
2024/03/31 02:34:52;;;;;;;17.57;5.73;;;9.30;99.90;;;;;;5027274;28;20473;-69
2024/03/31 02:37:18;;;;;;;23.80;6.10;;;9.50;99.90;;;;;;5035649;28;20479;-69
2024/03/31 02:39:45;;;;;;;19.97;5.63;;;9.70;99.90;;;;;;5027105;28;20897;-68
2024/03/31 02:42:14;;;;;;;20.50;6.83;;;9.50;99.90;;;;;;5024719;28;20977;-67
2024/03/31 02:44:41;;;;;;;21.97;6.50;;;9.40;99.90;;;;;;5039012;28;20487;-67
2024/03/31 02:47:07;;;;;;;17.20;7.70;;;9.30;99.90;;;;;;5042791;28;20447;-67
2024/03/31 02:49:35;;;;;;;22.10;6.43;;;9.30;99.90;;;;;;5019335;28;20451;-68
2024/03/31 02:52:02;;;;;;;19.80;5.27;;;9.20;99.90;;;;;;5027963;28;20455;-67
2024/03/31 02:54:29;;;;;;;18.83;6.00;;;9.10;99.90;;;;;;5017643;28;21005;-67
2024/03/31 02:56:55;;;;;;;21.13;5.50;;;9.10;99.90;;;;;;5033980;28;20864;-67
2024/03/31 02:59:22;;;;;;;17.80;5.63;;;9.10;99.90;;;;;;5023228;28;20449;-66
2024/03/31 03:01:48;;;;;;;20.27;5.57;;;9.20;99.90;;;;;;5043005;28;20452;-67
2024/03/31 03:04:15;;;;;;;23.23;6.10;;;9.20;99.90;;;;;;5022006;28;20472;-67
2024/03/31 03:06:42;;;;;;;22.40;6.20;;;9.10;99.90;;;;;;5027530;28;20452;-68
2024/03/31 03:09:09;;;;;;;18.60;6.13;;;9.20;99.90;;;;;;5019307;28;20455;-68
2024/03/31 03:11:35;;;;;;;19.60;6.10;;;9.10;99.90;;;;;;5035159;28;20452;-68
2024/03/31 03:14:02;;;;;;;19.43;5.90;;;9.10;99.90;;;;;;5015205;28;20467;-68
2024/03/31 03:16:28;;;;;;;18.60;6.37;;;8.90;99.90;;;;;;5037035;28;20448;-68
2024/03/31 03:18:55;;;;;;;21.80;5.70;;;8.70;99.90;;;;;;5019134;28;20840;-68
2024/03/31 03:21:21;;;;;;;19.93;6.17;;;8.80;99.90;;;;;;5023985;28;20455;-68
2024/03/31 03:23:49;;;;;;;18.60;5.10;;;8.70;99.90;;;;;;5043012;28;20472;-68
2024/03/31 03:26:16;;;;;;;15.30;5.60;;;8.70;99.90;;;;;;5013804;28;20942;-68
2024/03/31 03:28:43;;;;;;;20.70;6.30;;;8.50;99.90;;;;;;5019884;28;20458;-68
2024/03/31 03:31:09;;;;;;;20.90;6.73;;;8.30;99.90;;;;;;5033451;28;21176;-68
2024/03/31 03:33:36;;;;;;;14.00;5.60;;;8.30;99.90;;;;;;5038420;28;20484;-67
2024/03/31 03:36:03;;;;;;;18.47;7.00;;;8.10;99.90;;;;;;5026983;28;20456;-67
2024/03/31 03:38:30;;;;;;;15.90;6.33;;;8.00;99.90;;;;;;5026909;28;20487;-69
2024/03/31 03:40:58;;;;;;;21.17;6.90;;;7.90;99.90;;;;;;5026225;28;20482;-67
2024/03/31 03:43:26;;;;;;;22.83;6.17;;;8.10;99.90;;;;;;5034421;28;20575;-67
2024/03/31 03:45:51;;;;;;;21.77;5.20;;;8.20;99.90;;;;;;5024552;28;20519;-67
2024/03/31 03:48:19;;;;;;;16.63;5.30;;;8.10;99.90;;;;;;5026117;28;20463;-67
2024/03/31 03:50:44;;;;;;;26.30;6.60;;;7.90;99.90;;;;;;5023953;28;20954;-67
2024/03/31 03:53:11;;;;;;;20.53;6.10;;;7.80;99.90;;;;;;5036082;28;20477;-67
2024/03/31 03:55:37;;;;;;;15.80;5.43;;;7.70;99.90;;;;;;5024541;28;20469;-67
2024/03/31 03:58:06;;;;;;;21.40;5.77;;;7.50;99.90;;;;;;5025062;28;20473;-67
2024/03/31 04:00:32;;;;;;;20.10;6.10;;;7.60;99.90;;;;;;5025878;28;20448;-68
2024/03/31 04:02:59;;;;;;;18.80;5.57;;;7.50;99.90;;;;;;5027319;28;20442;-67
2024/03/31 04:05:25;;;;;;;17.23;5.03;;;7.30;99.90;;;;;;5036766;28;20445;-67
2024/03/31 04:07:52;;;;;;;22.83;6.00;;;7.30;99.90;;;;;;5023022;28;20454;-66
2024/03/31 04:10:18;;;;;;;21.40;6.87;;;7.40;99.90;;;;;;5024464;28;20981;-67
2024/03/31 04:12:45;;;;;;;22.30;6.10;;;7.40;99.90;;;;;;5026117;28;20458;-67
2024/03/31 04:15:12;;;;;;;23.53;6.47;;;7.30;99.90;;;;;;5026173;28;20460;-67
2024/03/31 04:17:40;;;;;;;17.53;5.13;;;7.20;99.90;;;;;;5024262;28;20479;-68
2024/03/31 04:20:06;;;;;;;18.20;5.40;;;7.10;99.90;;;;;;5026868;28;20490;-67
2024/03/31 04:22:33;;;;;;;18.07;5.03;;;7.10;99.90;;;;;;5026807;28;20457;-69
2024/03/31 04:24:59;;;;;;;17.93;5.80;;;7.20;99.90;;;;;;5026892;28;20465;-67
2024/03/31 04:27:27;;;;;;;23.67;6.90;;;7.30;99.90;;;;;;5026812;28;20465;-67
2024/03/31 04:29:53;;;;;;;18.60;4.30;;;7.20;99.90;;;;;;5026504;28;20814;-67
2024/03/31 04:32:21;;;;;;;18.57;4.40;;;7.20;99.90;;;;;;5013873;28;20447;-67
2024/03/31 04:34:47;;;;;;;14.00;5.23;;;7.10;99.90;;;;;;5025151;28;20461;-67
2024/03/31 04:37:14;;;;;;;24.00;5.20;;;7.10;99.90;;;;;;5024895;28;20481;-66
2024/03/31 04:39:40;;;;;;;14.90;4.27;;;7.10;99.90;;;;;;5023812;28;20476;-67
2024/03/31 04:42:07;;;;;;;16.77;5.93;;;7.00;99.90;;;;;;5040025;28;20440;-67
2024/03/31 04:44:33;;;;;;;20.50;5.93;;;6.90;99.90;;;;;;5024084;28;20480;-67
2024/03/31 04:47:00;;;;;;;22.27;5.87;;;6.70;99.90;;;;;;5036780;28;20453;-67
2024/03/31 04:49:28;;;;;;;21.73;5.70;;;6.90;99.90;;;;;;5021026;28;20453;-67
2024/03/31 04:51:55;;;;;;;21.43;5.90;;;7.30;99.90;;;;;;5025648;28;20441;-67
2024/03/31 04:54:21;;;;;;;19.07;6.17;;;7.40;99.90;;;;;;5024888;28;21227;-67
2024/03/31 04:56:48;;;;;;;16.67;5.20;;;7.20;99.90;;;;;;5006411;28;20465;-67
2024/03/31 04:59:14;;;;;;;21.27;5.73;;;7.10;99.90;;;;;;5036465;28;20504;-68
2024/03/31 05:01:41;;;;;;;21.23;6.03;;;7.10;99.90;;;;;;5018024;28;20455;-67
2024/03/31 05:04:07;;;;;;;16.43;5.80;;;7.10;99.90;;;;;;5025481;28;20465;-67
2024/03/31 05:06:35;;;;;;;15.20;5.47;;;7.00;99.90;;;;;;5022788;28;20462;-67
2024/03/31 05:09:02;;;;;;;14.70;6.80;;;7.10;99.90;;;;;;5023676;28;20505;-68
2024/03/31 05:11:29;;;;;;;22.20;6.07;;;7.10;99.90;;;;;;5033688;28;20445;-68
2024/03/31 05:13:55;;;;;;;18.40;5.40;;;7.00;99.90;;;;;;5024248;28;20474;-68
2024/03/31 05:16:22;;;;;;;22.70;6.37;;;7.00;99.90;;;;;;5027471;28;20947;-67
2024/03/31 05:18:51;;;;;;;23.10;6.10;;;7.00;99.90;;;;;;5024537;28;20497;-68
2024/03/31 05:21:18;;;;;;;19.13;6.20;;;7.00;99.90;;;;;;5013815;28;20501;-68
2024/03/31 05:23:46;;;;;;;15.73;5.70;;;7.20;99.90;;;;;;5020563;28;20588;-68
2024/03/31 05:26:14;;;;;;;17.27;5.00;;;7.40;99.90;;;;;;5010071;28;21623;-68
2024/03/31 05:28:41;;;;;;;16.97;5.23;;;7.40;99.90;;;;;;5023081;28;20449;-68
2024/03/31 05:31:08;;;;;;;15.47;5.20;;;7.20;99.90;;;;;;5036748;28;20505;-68
2024/03/31 05:33:34;;;;;;;23.40;5.33;;;7.10;99.90;;;;;;5033562;28;20474;-68
2024/03/31 05:36:01;;;;;;;22.10;6.07;;;7.10;99.90;;;;;;5015835;28;20450;-67
2024/03/31 05:38:27;;;;;;;23.20;5.70;;;7.10;99.90;;;;;;5028320;28;20476;-67
2024/03/31 05:40:56;;;;;;;19.47;6.80;;;7.10;99.90;;;;;;5024385;28;20457;-67
2024/03/31 05:43:22;;;;;;;19.90;6.70;;;7.30;99.90;;;;;;5021399;28;20544;-66
2024/03/31 05:45:50;;;;;;;16.23;5.27;;;7.40;99.90;;;;;;5041129;28;20454;-68
2024/03/31 05:48:16;;;;;;;20.60;5.77;;;7.50;99.90;;;;;;5022125;28;20442;-68
2024/03/31 05:50:43;;;;;;;18.23;6.17;;;7.50;99.90;;;;;;5016922;28;20456;-68
2024/03/31 05:53:09;;;;;;;22.10;7.17;;;7.40;99.90;;;;;;5024812;28;20901;-68
2024/03/31 05:55:36;;;;;;;18.63;6.00;;;7.40;99.90;;;;;;5013506;28;20452;-68
2024/03/31 05:58:03;;;;;;;17.23;6.43;;;7.70;99.90;;;;;;5039611;28;20535;-67
2024/03/31 06:00:30;;;;;;;20.70;6.30;;;7.90;99.90;;;;;;5033765;28;20507;-68
2024/03/31 06:02:56;;;;;;;15.07;5.73;;;8.00;99.90;;;;;;5028276;28;20455;-68
2024/03/31 06:05:23;;;;;;;16.93;5.90;;;7.90;99.90;;;;;;5024454;28;20531;-67
2024/03/31 06:07:50;;;;;;;20.73;6.00;;;7.80;99.90;;;;;;5044051;28;20998;-67
2024/03/31 06:10:18;;;;;;;19.47;6.77;;;7.70;99.90;;;;;;5029082;28;20441;-67
2024/03/31 06:12:44;;;;;;;19.07;6.70;;;7.70;99.90;;;;;;5027615;28;20500;-67
2024/03/31 06:15:12;;;;;;;21.27;6.00;;;7.70;99.90;;;;;;5020187;28;20531;-67
2024/03/31 06:17:39;;;;;;;22.27;6.73;;;7.70;99.90;;;;;;5028266;28;20486;-67
2024/03/31 06:20:07;;;;;;;15.20;5.93;;;7.70;99.90;;;;;;5016788;28;20979;-67
2024/03/31 06:22:38;;;;;;;16.40;5.93;;;8.00;99.90;;;;;;5028174;28;20464;-67
2024/03/31 06:25:05;;;;;;;18.80;5.97;;;8.10;99.90;;;;;;5026950;28;20465;-67
2024/03/31 06:27:31;;;;;;;19.77;5.70;;;8.00;99.90;;;;;;5018369;28;20442;-67
2024/03/31 06:29:59;;;;;;;18.17;6.23;;;7.90;99.90;;;;;;5027612;28;20949;-67
2024/03/31 06:32:26;;;;;;;22.67;5.90;;;8.00;99.90;;;;;;5028288;28;20459;-67
2024/03/31 06:34:53;;;;;;;21.97;7.40;;;8.10;99.90;;;;;;5008092;28;20468;-67
2024/03/31 06:37:19;;;;;;;20.87;6.10;;;8.20;99.90;;;;;;5031656;28;20448;-66
2024/03/31 06:39:46;;;;;;;15.13;6.57;;;8.30;99.90;;;;;;5025603;28;20463;-67
2024/03/31 06:42:15;;;;;;;18.60;6.87;;;8.40;99.90;;;;;;5030609;28;20451;-67
2024/03/31 06:44:42;;;;;;;21.30;5.83;;;8.50;99.90;;;;;;5011802;28;20484;-67
2024/03/31 06:47:08;;;;;;;14.73;5.40;;;8.50;99.90;;;;;;5039999;28;20450;-66
2024/03/31 06:49:38;;;;;;;18.30;5.70;;;8.60;99.90;;;;;;5026217;28;20452;-66
2024/03/31 06:52:04;;;;;;;18.00;6.20;;;8.70;99.90;;;;;;5026088;28;20463;-67
2024/03/31 06:54:31;;;;;;;12.83;5.80;;;8.90;99.90;;;;;;5025394;28;20472;-67
2024/03/31 06:56:58;;;;;;;14.93;6.10;;;9.00;99.90;;;;;;5026613;28;20437;-67
2024/03/31 06:59:25;;;;;;;20.73;7.27;;;9.10;99.90;;;;;;5030585;28;20481;-67
2024/03/31 07:01:51;;;;;;;16.67;5.73;;;9.20;99.90;;;;;;5023195;28;20436;-67
2024/03/31 07:04:18;;;;;;;18.17;6.43;;;9.20;99.90;;;;;;5024795;28;20470;-67
2024/03/31 07:06:45;;;;;;;17.07;5.53;;;9.20;99.90;;;;;;5022871;28;20463;-67
2024/03/31 07:09:12;;;;;;;18.53;6.03;;;9.20;99.90;;;;;;5033584;28;20445;-67
2024/03/31 07:11:39;;;;;;;21.40;7.07;;;9.20;99.90;;;;;;5018833;28;20443;-67
2024/03/31 07:14:06;;;;;;;20.03;5.90;;;9.30;99.90;;;;;;5008572;28;20465;-67
2024/03/31 07:16:32;;;;;;;17.23;6.90;;;9.40;99.90;;;;;;5037852;28;21004;-68
2024/03/31 07:18:59;;;;;;;20.63;5.60;;;9.50;99.90;;;;;;5026734;28;20484;-67
2024/03/31 07:21:25;;;;;;;22.27;6.13;;;9.60;99.90;;;;;;5028190;28;20447;-68
2024/03/31 07:23:54;;;;;;;18.10;6.50;;;9.80;99.90;;;;;;5024994;28;20473;-66
2024/03/31 07:26:20;;;;;;;26.67;7.63;;;9.80;99.90;;;;;;5039096;28;20505;-69
2024/03/31 07:28:47;;;;;;;19.33;5.80;;;9.80;99.90;;;;;;5026747;28;20452;-67
2024/03/31 07:31:13;;;;;;;17.77;5.90;;;10.10;99.90;;;;;;5027364;28;20978;-67
2024/03/31 07:33:40;;;;;;;23.10;6.33;;;10.20;99.90;;;;;;5026988;28;20897;-66
2024/03/31 07:36:07;;;;;;;21.53;5.30;;;10.20;99.90;;;;;;5026962;28;20507;-67
2024/03/31 07:38:34;;;;;;;17.30;5.80;;;10.20;99.90;;;;;;5028757;28;20481;-67
2024/03/31 07:41:01;;;;;;;20.13;6.33;;;10.30;99.90;;;;;;5027014;28;20885;-67
2024/03/31 07:43:28;;;;;;;22.67;5.83;;;10.40;99.90;;;;;;5021697;28;21009;-67
2024/03/31 07:45:54;;;;;;;18.70;5.93;;;10.50;99.90;;;;;;5038668;28;20545;-67
2024/03/31 07:48:21;;;;;;;17.57;5.40;;;10.60;99.90;;;;;;5026954;28;20964;-67
2024/03/31 07:50:47;;;;;;;16.83;5.10;;;10.70;99.90;;;;;;5026459;28;20457;-66
2024/03/31 07:53:14;;;;;;;19.80;4.90;;;11.00;99.90;;;;;;5037345;28;20455;-68
2024/03/31 07:55:41;;;;;;;21.60;5.90;;;11.20;99.90;;;;;;5021752;28;20467;-67
2024/03/31 07:58:09;;;;;;;25.40;5.80;;;11.50;99.90;;;;;;5033610;28;20484;-67
2024/03/31 08:00:35;;;;;;;16.80;5.37;;;11.70;99.90;;;;;;5031417;28;20458;-67
2024/03/31 08:03:02;;;;;;;15.27;4.90;;;11.80;99.90;;;;;;5007796;28;21234;-67
2024/03/31 08:05:29;;;;;;;18.10;4.93;;;11.80;99.90;;;;;;5030196;28;20442;-67
2024/03/31 08:07:56;;;;;;;18.27;5.43;;;11.90;99.90;;;;;;5023108;28;20510;-67
2024/03/31 08:10:22;;;;;;;21.57;4.97;;;12.10;99.90;;;;;;5018348;28;20446;-67
2024/03/31 08:12:50;;;;;;;15.73;5.33;;;12.30;99.90;;;;;;5009934;28;20992;-66
2024/03/31 08:15:17;;;;;;;16.40;4.60;;;12.60;99.90;;;;;;5025702;28;20472;-67
2024/03/31 08:17:44;;;;;;;21.67;5.53;;;12.90;99.90;;;;;;5036766;28;20453;-67
2024/03/31 08:20:10;;;;;;;24.27;5.60;;;13.10;99.90;;;;;;5025813;28;20506;-68
2024/03/31 08:22:37;;;;;;;17.40;4.43;;;13.20;99.90;;;;;;5025230;28;20543;-67
2024/03/31 08:25:03;;;;;;;20.27;3.97;;;13.20;99.90;;;;;;5024800;28;20465;-67
2024/03/31 08:27:30;;;;;;;15.83;3.90;;;13.10;99.90;;;;;;5021626;28;20456;-67
2024/03/31 08:29:56;;;;;;;15.17;4.40;;;13.00;99.90;;;;;;5017843;28;20442;-68
2024/03/31 08:32:25;;;;;;;21.50;4.13;;;13.10;99.90;;;;;;5041901;28;20460;-68
2024/03/31 08:34:51;;;;;;;14.90;4.20;;;13.30;99.90;;;;;;5022473;28;20516;-68
2024/03/31 08:37:18;;;;;;;11.93;4.60;;;13.40;99.90;;;;;;5021290;28;20451;-68
2024/03/31 08:39:44;;;;;;;17.53;3.57;;;13.50;99.90;;;;;;5018549;28;20488;-67
2024/03/31 08:42:18;;;;;;;19.10;4.20;;;13.70;99.90;;;;;;5022070;28;20508;-67
2024/03/31 08:44:46;;;;;;;19.03;3.93;;;13.90;99.90;;;;;;5013658;28;20490;-68
2024/03/31 08:47:17;;;;;;;13.97;3.60;;;14.20;99.90;;;;;;5014099;28;20861;-67
2024/03/31 08:49:45;;;;;;;20.00;6.03;;;14.40;99.90;;;;;;5013928;28;20449;-67
2024/03/31 08:52:12;;;;;;;18.20;3.57;;;14.50;99.90;;;;;;5019729;28;20459;-67
2024/03/31 08:54:38;;;;;;;19.70;3.70;;;14.50;99.90;;;;;;5020619;28;20477;-67
2024/03/31 08:57:06;;;;;;;17.20;3.97;;;14.60;99.90;;;;;;5018421;28;20952;-67
2024/03/31 08:59:31;;;;;;;21.07;4.00;;;14.70;99.90;;;;;;5026010;28;20506;-67
2024/03/31 09:01:59;;;;;;;17.83;3.73;;;14.80;99.90;;;;;;5020742;28;20830;-69
2024/03/31 09:04:25;;;;;;;18.73;4.67;;;14.70;99.90;;;;;;5013110;28;20475;-68
2024/03/31 09:06:54;;;;;;;14.07;3.30;;;14.90;99.90;;;;;;5024116;28;20441;-67
2024/03/31 09:09:22;;;;;;;15.33;2.93;;;15.30;99.90;;;;;;5023649;28;20445;-68
2024/03/31 09:11:50;;;;;;;22.53;4.00;;;15.70;99.90;;;;;;5020869;28;20444;-68
2024/03/31 09:14:17;;;;;;;16.60;4.00;;;16.00;99.90;;;;;;5012499;28;20886;-67
2024/03/31 09:16:46;;;;;;;19.70;3.90;;;16.20;99.90;;;;;;5018317;28;20445;-67
2024/03/31 09:19:12;;;;;;;20.97;3.87;;;16.60;99.90;;;;;;5023558;28;20476;-68
2024/03/31 09:21:45;;;;;;;15.53;3.30;;;17.20;99.90;;;;;;5025822;28;20437;-68
2024/03/31 09:24:13;;;;;;;19.33;4.07;;;17.90;99.90;;;;;;5015950;28;20476;-68
2024/03/31 09:26:40;;;;;;;19.77;3.70;;;18.00;99.90;;;;;;5014372;28;20476;-69
2024/03/31 09:29:06;;;;;;;17.03;3.00;;;18.50;99.90;;;;;;5018172;28;20445;-68
2024/03/31 09:31:33;;;;;;;15.50;3.27;;;19.00;99.90;;;;;;5018818;28;21217;-69
2024/03/31 09:33:59;;;;;;;16.70;3.87;;;18.80;99.90;;;;;;5017744;28;20871;-68
2024/03/31 09:36:27;;;;;;;18.50;3.40;;;18.80;99.90;;;;;;5019162;28;20458;-68
2024/03/31 09:38:53;;;;;;;17.60;4.17;;;18.50;99.90;;;;;;5022303;28;20470;-69
2024/03/31 09:41:22;;;;;;;15.00;3.97;;;18.30;99.50;;;;;;5018124;28;20452;-68
2024/03/31 09:43:48;;;;;;;18.80;3.50;;;18.10;99.90;;;;;;5021983;28;20834;-69
2024/03/31 09:46:16;;;;;;;19.17;3.10;;;18.10;99.90;;;;;;5016993;28;20453;-69
2024/03/31 09:48:46;;;;;;;14.10;2.90;;;18.30;99.60;;;;;;5027417;28;20454;-68
2024/03/31 09:51:17;;;;;;;16.67;3.93;;;18.70;99.70;;;;;;5021994;28;20449;-68
2024/03/31 09:53:54;;;;;;;14.13;2.80;;;18.90;98.40;;;;;;5025028;28;20532;-69
2024/03/31 09:56:29;;;;;;;15.87;3.70;;;19.10;95.90;;;;;;5020751;28;21197;-67
2024/03/31 09:59:01;;;;;;;17.17;3.47;;;19.10;94.90;;;;;;5008820;28;20482;-66
2024/03/31 10:01:28;;;;;;;15.23;4.30;;;18.90;96.10;;;;;;5020320;28;20454;-68
2024/03/31 10:04:01;;;;;;;16.87;3.10;;;19.00;94.60;;;;;;5039699;28;20471;-67
2024/03/31 10:06:30;;;;;;;15.63;3.40;;;18.70;94.20;;;;;;5017299;28;20450;-68
2024/03/31 10:08:56;;;;;;;14.07;3.20;;;18.70;93.90;;;;;;5025166;28;20448;-67
2024/03/31 10:11:25;;;;;;;15.50;3.53;;;18.50;94.30;;;;;;5029224;28;20511;-67
2024/03/31 10:13:53;;;;;;;14.97;3.23;;;18.90;94.30;;;;;;5025234;28;20534;-67
2024/03/31 10:16:21;;;;;;;18.30;4.37;;;19.40;92.90;;;;;;5011802;28;20481;-68
2024/03/31 10:18:47;;;;;;;15.40;3.00;;;19.70;92.30;;;;;;5027432;28;20489;-67
2024/03/31 10:21:15;;;;;;;18.10;3.03;;;20.20;90.80;;;;;;5012166;28;20584;-67
2024/03/31 10:23:42;;;;;;;15.03;2.83;;;20.70;91.60;;;;;;5026147;28;20481;-67
2024/03/31 10:26:11;;;;;;;16.43;3.00;;;21.20;87.00;;;;;;5027093;28;20445;-67
2024/03/31 10:28:39;;;;;;;16.07;3.17;;;21.40;82.60;;;;;;5036030;28;20448;-68
2024/03/31 10:31:06;;;;;;;19.60;3.90;;;21.40;82.60;;;;;;5027696;28;20445;-67
2024/03/31 10:33:33;;;;;;;21.20;3.93;;;21.30;77.10;;;;;;5016491;28;20473;-67
2024/03/31 10:36:01;;;;;;;19.87;3.47;;;21.30;78.30;;;;;;5020474;28;20441;-67
2024/03/31 10:38:27;;;;;;;16.80;3.67;;;21.30;77.40;;;;;;5033012;28;20477;-67
2024/03/31 10:40:54;;;;;;;12.87;3.03;;;21.40;72.20;;;;;;5027944;28;20551;-68
2024/03/31 10:43:20;;;;;;;14.03;4.10;;;21.10;75.70;;;;;;5024272;28;20480;-67
2024/03/31 10:45:48;;;;;;;20.87;9.43;;;21.20;74.60;;;;;;5013918;28;20520;-70
2024/03/31 10:48:15;;;;;;;22.43;4.57;;;21.40;74.80;;;;;;5024973;28;20446;-67
2024/03/31 10:50:42;;;;;;;19.60;4.67;;;21.90;73.40;;;;;;5022770;28;20457;-67
2024/03/31 10:53:09;;;;;;;18.73;3.80;;;22.30;71.00;;;;;;5035175;28;20453;-67
2024/03/31 10:55:36;;;;;;;16.93;2.97;;;22.20;70.60;;;;;;5015081;28;20450;-67
2024/03/31 10:58:02;;;;;;;20.23;3.30;;;21.90;69.80;;;;;;5029593;28;20457;-66
2024/03/31 11:00:36;;;;;;;14.27;3.00;;;21.70;68.90;;;;;;5027553;28;20542;-66
2024/03/31 11:03:07;;;;;;;16.07;3.30;;;21.70;70.20;;;;;;5040601;28;20441;-66
2024/03/31 11:05:34;;;;;;;15.93;2.97;;;22.00;71.30;;;;;;5027221;28;20460;-67
2024/03/31 11:08:02;;;;;;;18.67;5.80;;;22.00;68.30;;;;;;5027748;28;20450;-67
2024/03/31 11:10:32;;;;;;;16.67;7.50;;;21.90;68.90;;;;;;5027843;28;20445;-67
2024/03/31 11:12:59;;;;;;;18.70;4.40;;;21.80;70.10;;;;;;5027246;28;20456;-67
2024/03/31 11:15:28;;;;;;;16.87;4.33;;;21.50;68.20;;;;;;5023676;28;20981;-67
2024/03/31 11:17:54;;;;;;;17.07;3.70;;;21.20;69.10;;;;;;5018796;28;20446;-67
2024/03/31 11:20:24;;;;;;;17.13;4.83;;;21.00;71.70;;;;;;5016479;28;20490;-66
2024/03/31 11:22:50;;;;;;;13.80;3.63;;;20.80;75.50;;;;;;5034922;28;20457;-66
2024/03/31 11:25:18;;;;;;;15.07;3.40;;;20.70;70.70;;;;;;5026827;28;20542;-67
2024/03/31 11:27:44;;;;;;;15.00;3.20;;;20.40;72.60;;;;;;5021821;28;20449;-66
2024/03/31 11:30:13;;;;;;;16.13;3.10;;;20.20;73.90;;;;;;5027077;28;20449;-66
2024/03/31 11:32:40;;;;;;;13.90;3.17;;;20.10;75.00;;;;;;5026932;28;20445;-67
2024/03/31 11:35:08;;;;;;;13.97;3.10;;;20.00;76.60;;;;;;5026153;28;20469;-67
2024/03/31 11:37:36;;;;;;;22.23;3.50;;;19.80;76.00;;;;;;5033951;28;20457;-67
2024/03/31 11:40:05;;;;;;;14.87;2.60;;;19.80;74.00;;;;;;5026957;28;20487;-67
2024/03/31 11:42:31;;;;;;;18.03;4.27;;;19.70;72.30;;;;;;5022341;28;20457;-67
2024/03/31 11:44:58;;;;;;;18.90;5.47;;;19.70;76.30;;;;;;5023200;28;20475;-68
2024/03/31 11:47:24;;;;;;;19.57;5.00;;;19.80;76.60;;;;;;5026883;28;20449;-68
2024/03/31 11:49:51;;;;;;;16.57;7.20;;;20.20;74.70;;;;;;5026204;28;20468;-68
2024/03/31 11:52:17;;;;;;;19.03;3.93;;;20.40;73.80;;;;;;5026444;28;20459;-68
2024/03/31 11:54:46;;;;;;;17.60;3.67;;;20.30;75.30;;;;;;5018064;28;20813;-68
2024/03/31 11:57:12;;;;;;;14.47;3.30;;;21.00;74.60;;;;;;5025745;28;20460;-68
2024/03/31 11:59:39;;;;;;;17.23;4.03;;;21.90;71.20;;;;;;5034483;28;20493;-68
2024/03/31 12:02:06;;;;;;;20.17;4.40;;;23.10;70.60;;;;;;5026367;28;20460;-68
2024/03/31 12:04:33;;;;;;;22.63;9.93;;;24.10;64.90;;;;;;5035743;28;20472;-68
2024/03/31 12:07:00;;;;;;;20.17;7.60;;;24.70;61.80;;;;;;5027099;28;20448;-68
2024/03/31 12:09:27;;;;;;;14.37;3.30;;;25.00;62.00;;;;;;5026402;28;20449;-69
2024/03/31 12:11:54;;;;;;;19.60;4.07;;;25.90;61.40;;;;;;5026329;28;20445;-68
2024/03/31 12:14:22;;;;;;;20.17;3.80;;;26.80;56.00;;;;;;5024796;28;20480;-68
2024/03/31 12:16:50;;;;;;;14.87;4.47;;;26.50;56.50;;;;;;5025706;28;20461;-68
2024/03/31 12:19:18;;;;;;;16.50;5.00;;;25.60;56.70;;;;;;5017081;28;21137;-67
2024/03/31 12:21:45;;;;;;;18.00;5.40;;;24.40;56.50;;;;;;5024806;28;20445;-68
2024/03/31 12:24:13;;;;;;;14.43;4.20;;;23.20;59.40;;;;;;5023390;28;20469;-67
2024/03/31 12:26:39;;;;;;;14.70;5.03;;;22.80;60.30;;;;;;5025548;28;20453;-68
2024/03/31 12:29:09;;;;;;;17.90;6.20;;;22.80;62.80;;;;;;5035624;28;20441;-68
2024/03/31 12:31:36;;;;;;;13.43;4.00;;;22.90;62.00;;;;;;5026097;28;20879;-68
2024/03/31 12:34:03;;;;;;;14.73;3.63;;;22.60;61.40;;;;;;5031503;28;20461;-68
2024/03/31 12:36:29;;;;;;;16.17;3.30;;;22.40;61.40;;;;;;5026171;28;20452;-68
2024/03/31 12:38:57;;;;;;;16.50;3.40;;;22.10;65.50;;;;;;5022067;28;20484;-68
2024/03/31 12:41:23;;;;;;;15.77;3.73;;;21.90;64.80;;;;;;5023913;28;20822;-68